sensor_id;sensor_type;location;lat;lon;timestamp;P1;durP1;ratioP1;P2;durP2;ratioP2
12267;SDS011;6196;48.398;11.736;2022-12-11T00:00:22;33.97;;;21.00;;
12267;SDS011;6196;48.398;11.736;2022-12-11T00:02:49;33.87;;;22.07;;
12267;SDS011;6196;48.398;11.736;2022-12-11T00:05:16;34.67;;;21.37;;
12267;SDS011;6196;48.398;11.736;2022-12-11T00:07:43;32.57;;;21.50;;
12267;SDS011;6196;48.398;11.736;2022-12-11T00:10:10;31.33;;;20.70;;
12267;SDS011;6196;48.398;11.736;2022-12-11T00:12:37;31.77;;;21.40;;
12267;SDS011;6196;48.398;11.736;2022-12-11T00:15:04;33.27;;;21.50;;
12267;SDS011;6196;48.398;11.736;2022-12-11T00:17:31;32.73;;;20.70;;
12267;SDS011;6196;48.398;11.736;2022-12-11T00:19:58;32.10;;;19.97;;
12267;SDS011;6196;48.398;11.736;2022-12-11T00:22:25;29.80;;;19.60;;
12267;SDS011;6196;48.398;11.736;2022-12-11T00:24:52;30.10;;;20.23;;
12267;SDS011;6196;48.398;11.736;2022-12-11T00:27:18;29.47;;;19.17;;
12267;SDS011;6196;48.398;11.736;2022-12-11T00:29:45;31.87;;;20.40;;
12267;SDS011;6196;48.398;11.736;2022-12-11T00:32:12;29.40;;;19.23;;
12267;SDS011;6196;48.398;11.736;2022-12-11T00:34:39;30.50;;;20.43;;
12267;SDS011;6196;48.398;11.736;2022-12-11T00:37:06;31.07;;;20.60;;
12267;SDS011;6196;48.398;11.736;2022-12-11T00:39:33;31.40;;;20.43;;
12267;SDS011;6196;48.398;11.736;2022-12-11T00:41:59;29.63;;;20.50;;
12267;SDS011;6196;48.398;11.736;2022-12-11T00:44:26;32.00;;;21.07;;
12267;SDS011;6196;48.398;11.736;2022-12-11T00:46:53;29.83;;;20.17;;
12267;SDS011;6196;48.398;11.736;2022-12-11T00:49:20;32.67;;;21.20;;
12267;SDS011;6196;48.398;11.736;2022-12-11T00:51:47;29.00;;;19.10;;
12267;SDS011;6196;48.398;11.736;2022-12-11T00:54:14;30.47;;;18.53;;
12267;SDS011;6196;48.398;11.736;2022-12-11T00:56:41;29.50;;;19.83;;
12267;SDS011;6196;48.398;11.736;2022-12-11T00:59:08;27.73;;;18.93;;
12267;SDS011;6196;48.398;11.736;2022-12-11T01:01:34;32.03;;;20.77;;
12267;SDS011;6196;48.398;11.736;2022-12-11T01:04:01;26.77;;;18.83;;
12267;SDS011;6196;48.398;11.736;2022-12-11T01:06:28;28.57;;;18.80;;
12267;SDS011;6196;48.398;11.736;2022-12-11T01:08:55;28.20;;;19.87;;
12267;SDS011;6196;48.398;11.736;2022-12-11T01:11:41;25.73;;;17.83;;
12267;SDS011;6196;48.398;11.736;2022-12-11T01:14:09;29.23;;;19.83;;
12267;SDS011;6196;48.398;11.736;2022-12-11T01:16:37;27.90;;;18.93;;
12267;SDS011;6196;48.398;11.736;2022-12-11T01:19:04;28.17;;;18.67;;
12267;SDS011;6196;48.398;11.736;2022-12-11T01:21:31;27.83;;;17.13;;
12267;SDS011;6196;48.398;11.736;2022-12-11T01:23:57;25.33;;;16.90;;
12267;SDS011;6196;48.398;11.736;2022-12-11T01:26:24;26.63;;;18.50;;
12267;SDS011;6196;48.398;11.736;2022-12-11T01:28:51;26.37;;;17.47;;
12267;SDS011;6196;48.398;11.736;2022-12-11T01:31:18;26.67;;;17.77;;
12267;SDS011;6196;48.398;11.736;2022-12-11T01:33:47;27.90;;;17.33;;
12267;SDS011;6196;48.398;11.736;2022-12-11T01:36:17;23.03;;;16.23;;
12267;SDS011;6196;48.398;11.736;2022-12-11T01:38:46;24.57;;;17.60;;
12267;SDS011;6196;48.398;11.736;2022-12-11T01:41:14;28.67;;;18.23;;
12267;SDS011;6196;48.398;11.736;2022-12-11T01:46:33;25.07;;;16.20;;
12267;SDS011;6196;48.398;11.736;2022-12-11T01:49:03;24.03;;;16.17;;
12267;SDS011;6196;48.398;11.736;2022-12-11T01:51:36;25.10;;;16.47;;
12267;SDS011;6196;48.398;11.736;2022-12-11T01:54:29;23.90;;;16.10;;
12267;SDS011;6196;48.398;11.736;2022-12-11T01:56:59;25.67;;;15.73;;
12267;SDS011;6196;48.398;11.736;2022-12-11T01:59:31;23.93;;;16.07;;
12267;SDS011;6196;48.398;11.736;2022-12-11T02:02:19;24.53;;;16.07;;
12267;SDS011;6196;48.398;11.736;2022-12-11T02:04:52;23.87;;;16.40;;
12267;SDS011;6196;48.398;11.736;2022-12-11T02:07:18;23.67;;;15.83;;
12267;SDS011;6196;48.398;11.736;2022-12-11T02:09:45;21.77;;;15.93;;
12267;SDS011;6196;48.398;11.736;2022-12-11T02:12:29;20.03;;;14.20;;
12267;SDS011;6196;48.398;11.736;2022-12-11T02:18:33;20.90;;;14.77;;
12267;SDS011;6196;48.398;11.736;2022-12-11T02:21:19;20.10;;;13.93;;
12267;SDS011;6196;48.398;11.736;2022-12-11T02:27:10;20.77;;;13.70;;
12267;SDS011;6196;48.398;11.736;2022-12-11T02:32:45;20.73;;;15.17;;
12267;SDS011;6196;48.398;11.736;2022-12-11T02:35:37;19.37;;;13.73;;
12267;SDS011;6196;48.398;11.736;2022-12-11T02:38:15;19.97;;;14.10;;
12267;SDS011;6196;48.398;11.736;2022-12-11T02:40:50;18.47;;;13.13;;
12267;SDS011;6196;48.398;11.736;2022-12-11T02:43:18;19.97;;;14.33;;
12267;SDS011;6196;48.398;11.736;2022-12-11T02:45:46;19.83;;;14.37;;
12267;SDS011;6196;48.398;11.736;2022-12-11T02:48:15;18.37;;;12.80;;
12267;SDS011;6196;48.398;11.736;2022-12-11T02:50:44;16.90;;;12.13;;
12267;SDS011;6196;48.398;11.736;2022-12-11T02:53:15;15.37;;;10.70;;
12267;SDS011;6196;48.398;11.736;2022-12-11T02:55:46;15.90;;;10.60;;
12267;SDS011;6196;48.398;11.736;2022-12-11T02:58:22;15.50;;;10.27;;
12267;SDS011;6196;48.398;11.736;2022-12-11T03:00:56;13.63;;;9.83;;
12267;SDS011;6196;48.398;11.736;2022-12-11T03:03:23;14.63;;;10.50;;
12267;SDS011;6196;48.398;11.736;2022-12-11T03:05:50;15.70;;;10.30;;
12267;SDS011;6196;48.398;11.736;2022-12-11T03:08:18;14.23;;;9.67;;
12267;SDS011;6196;48.398;11.736;2022-12-11T03:10:45;13.43;;;9.33;;
12267;SDS011;6196;48.398;11.736;2022-12-11T03:13:12;12.30;;;9.43;;
12267;SDS011;6196;48.398;11.736;2022-12-11T03:21:18;14.03;;;10.10;;
12267;SDS011;6196;48.398;11.736;2022-12-11T03:27:13;14.60;;;10.63;;
12267;SDS011;6196;48.398;11.736;2022-12-11T03:29:57;15.33;;;11.80;;
12267;SDS011;6196;48.398;11.736;2022-12-11T03:32:35;16.70;;;12.13;;
12267;SDS011;6196;48.398;11.736;2022-12-11T03:37:57;18.03;;;13.03;;
12267;SDS011;6196;48.398;11.736;2022-12-11T03:40:30;16.27;;;12.77;;
12267;SDS011;6196;48.398;11.736;2022-12-11T03:42:59;17.73;;;12.90;;
12267;SDS011;6196;48.398;11.736;2022-12-11T03:45:26;17.20;;;12.53;;
12267;SDS011;6196;48.398;11.736;2022-12-11T03:47:55;16.40;;;11.87;;
12267;SDS011;6196;48.398;11.736;2022-12-11T03:50:25;15.07;;;11.10;;
12267;SDS011;6196;48.398;11.736;2022-12-11T03:52:56;17.03;;;12.27;;
12267;SDS011;6196;48.398;11.736;2022-12-11T03:55:23;15.57;;;11.37;;
12267;SDS011;6196;48.398;11.736;2022-12-11T03:57:52;16.43;;;12.33;;
12267;SDS011;6196;48.398;11.736;2022-12-11T04:00:19;15.77;;;11.67;;
12267;SDS011;6196;48.398;11.736;2022-12-11T04:02:47;15.80;;;11.87;;
12267;SDS011;6196;48.398;11.736;2022-12-11T04:05:47;17.17;;;11.93;;
12267;SDS011;6196;48.398;11.736;2022-12-11T04:08:17;16.60;;;11.80;;
12267;SDS011;6196;48.398;11.736;2022-12-11T04:10:46;15.53;;;11.63;;
12267;SDS011;6196;48.398;11.736;2022-12-11T04:13:13;16.83;;;12.10;;
12267;SDS011;6196;48.398;11.736;2022-12-11T04:15:40;17.67;;;12.60;;
12267;SDS011;6196;48.398;11.736;2022-12-11T04:18:08;17.03;;;12.50;;
12267;SDS011;6196;48.398;11.736;2022-12-11T04:20:54;16.47;;;12.20;;
12267;SDS011;6196;48.398;11.736;2022-12-11T04:23:39;16.10;;;11.37;;
12267;SDS011;6196;48.398;11.736;2022-12-11T04:26:25;15.37;;;11.67;;
12267;SDS011;6196;48.398;11.736;2022-12-11T04:28:52;15.83;;;12.20;;
12267;SDS011;6196;48.398;11.736;2022-12-11T04:31:20;16.20;;;12.00;;
12267;SDS011;6196;48.398;11.736;2022-12-11T04:33:48;14.40;;;10.90;;
12267;SDS011;6196;48.398;11.736;2022-12-11T04:36:15;14.93;;;11.33;;
12267;SDS011;6196;48.398;11.736;2022-12-11T04:38:42;15.80;;;11.47;;
12267;SDS011;6196;48.398;11.736;2022-12-11T04:41:10;15.10;;;11.83;;
12267;SDS011;6196;48.398;11.736;2022-12-11T04:43:40;14.53;;;11.10;;
12267;SDS011;6196;48.398;11.736;2022-12-11T04:46:11;16.97;;;11.77;;
12267;SDS011;6196;48.398;11.736;2022-12-11T04:48:44;15.67;;;11.23;;
12267;SDS011;6196;48.398;11.736;2022-12-11T04:51:12;15.67;;;11.37;;
12267;SDS011;6196;48.398;11.736;2022-12-11T04:53:39;13.57;;;10.77;;
12267;SDS011;6196;48.398;11.736;2022-12-11T04:56:07;16.20;;;11.77;;
12267;SDS011;6196;48.398;11.736;2022-12-11T04:58:38;14.40;;;10.40;;
12267;SDS011;6196;48.398;11.736;2022-12-11T05:01:11;14.87;;;11.27;;
12267;SDS011;6196;48.398;11.736;2022-12-11T05:03:42;16.10;;;11.63;;
12267;SDS011;6196;48.398;11.736;2022-12-11T05:06:10;14.57;;;11.20;;
12267;SDS011;6196;48.398;11.736;2022-12-11T05:08:38;14.13;;;10.50;;
12267;SDS011;6196;48.398;11.736;2022-12-11T05:11:08;16.10;;;11.03;;
12267;SDS011;6196;48.398;11.736;2022-12-11T05:13:37;14.87;;;10.83;;
12267;SDS011;6196;48.398;11.736;2022-12-11T05:16:05;13.90;;;10.23;;
12267;SDS011;6196;48.398;11.736;2022-12-11T05:18:37;14.30;;;10.40;;
12267;SDS011;6196;48.398;11.736;2022-12-11T05:21:05;15.33;;;10.70;;
12267;SDS011;6196;48.398;11.736;2022-12-11T05:23:36;13.07;;;9.80;;
12267;SDS011;6196;48.398;11.736;2022-12-11T05:26:05;13.90;;;9.83;;
12267;SDS011;6196;48.398;11.736;2022-12-11T05:28:36;14.37;;;9.47;;
12267;SDS011;6196;48.398;11.736;2022-12-11T05:31:13;14.93;;;10.13;;
12267;SDS011;6196;48.398;11.736;2022-12-11T05:33:44;14.73;;;10.27;;
12267;SDS011;6196;48.398;11.736;2022-12-11T05:36:20;13.30;;;10.17;;
12267;SDS011;6196;48.398;11.736;2022-12-11T05:38:50;13.50;;;9.67;;
12267;SDS011;6196;48.398;11.736;2022-12-11T05:41:19;13.37;;;9.57;;
12267;SDS011;6196;48.398;11.736;2022-12-11T05:43:48;13.63;;;9.87;;
12267;SDS011;6196;48.398;11.736;2022-12-11T05:46:20;12.37;;;8.93;;
12267;SDS011;6196;48.398;11.736;2022-12-11T05:48:50;11.80;;;8.80;;
12267;SDS011;6196;48.398;11.736;2022-12-11T05:51:21;13.27;;;8.90;;
12267;SDS011;6196;48.398;11.736;2022-12-11T05:53:48;13.47;;;9.27;;
12267;SDS011;6196;48.398;11.736;2022-12-11T05:56:21;13.47;;;9.77;;
12267;SDS011;6196;48.398;11.736;2022-12-11T05:58:54;14.87;;;10.13;;
12267;SDS011;6196;48.398;11.736;2022-12-11T06:03:53;13.90;;;9.87;;
12267;SDS011;6196;48.398;11.736;2022-12-11T06:06:21;15.57;;;10.53;;
12267;SDS011;6196;48.398;11.736;2022-12-11T06:08:53;15.00;;;10.13;;
12267;SDS011;6196;48.398;11.736;2022-12-11T06:11:21;14.67;;;10.10;;
12267;SDS011;6196;48.398;11.736;2022-12-11T06:13:50;15.10;;;10.00;;
12267;SDS011;6196;48.398;11.736;2022-12-11T06:16:18;13.37;;;9.30;;
12267;SDS011;6196;48.398;11.736;2022-12-11T06:18:45;15.07;;;10.90;;
12267;SDS011;6196;48.398;11.736;2022-12-11T06:21:21;13.60;;;10.03;;
12267;SDS011;6196;48.398;11.736;2022-12-11T06:23:58;15.50;;;10.20;;
12267;SDS011;6196;48.398;11.736;2022-12-11T06:26:27;15.93;;;9.97;;
12267;SDS011;6196;48.398;11.736;2022-12-11T06:28:55;12.93;;;9.30;;
12267;SDS011;6196;48.398;11.736;2022-12-11T06:31:22;15.90;;;10.10;;
12267;SDS011;6196;48.398;11.736;2022-12-11T06:33:49;15.03;;;10.30;;
12267;SDS011;6196;48.398;11.736;2022-12-11T06:36:17;14.00;;;10.13;;
12267;SDS011;6196;48.398;11.736;2022-12-11T06:38:46;17.63;;;11.37;;
12267;SDS011;6196;48.398;11.736;2022-12-11T06:41:14;19.00;;;12.53;;
12267;SDS011;6196;48.398;11.736;2022-12-11T06:43:42;15.33;;;10.87;;
12267;SDS011;6196;48.398;11.736;2022-12-11T06:46:10;17.87;;;11.37;;
12267;SDS011;6196;48.398;11.736;2022-12-11T06:48:45;17.53;;;11.50;;
12267;SDS011;6196;48.398;11.736;2022-12-11T06:51:16;16.03;;;11.07;;
12267;SDS011;6196;48.398;11.736;2022-12-11T06:53:51;19.57;;;12.80;;
12267;SDS011;6196;48.398;11.736;2022-12-11T06:56:21;16.37;;;11.57;;
12267;SDS011;6196;48.398;11.736;2022-12-11T06:58:49;18.80;;;12.27;;
12267;SDS011;6196;48.398;11.736;2022-12-11T07:01:21;19.83;;;12.57;;
12267;SDS011;6196;48.398;11.736;2022-12-11T07:03:54;26.30;;;14.97;;
12267;SDS011;6196;48.398;11.736;2022-12-11T07:06:23;24.17;;;14.70;;
12267;SDS011;6196;48.398;11.736;2022-12-11T07:08:52;23.10;;;14.83;;
12267;SDS011;6196;48.398;11.736;2022-12-11T07:11:19;17.73;;;12.43;;
12267;SDS011;6196;48.398;11.736;2022-12-11T07:13:47;19.43;;;14.50;;
12267;SDS011;6196;48.398;11.736;2022-12-11T07:16:14;20.40;;;13.80;;
12267;SDS011;6196;48.398;11.736;2022-12-11T07:18:45;19.17;;;13.10;;
12267;SDS011;6196;48.398;11.736;2022-12-11T07:21:14;18.57;;;13.10;;
12267;SDS011;6196;48.398;11.736;2022-12-11T07:23:41;18.40;;;13.17;;
12267;SDS011;6196;48.398;11.736;2022-12-11T07:26:09;18.67;;;12.77;;
12267;SDS011;6196;48.398;11.736;2022-12-11T07:28:39;19.90;;;13.50;;
12267;SDS011;6196;48.398;11.736;2022-12-11T07:31:26;18.53;;;12.97;;
12267;SDS011;6196;48.398;11.736;2022-12-11T07:33:57;17.90;;;13.30;;
12267;SDS011;6196;48.398;11.736;2022-12-11T07:36:27;17.30;;;12.50;;
12267;SDS011;6196;48.398;11.736;2022-12-11T07:38:55;21.70;;;13.57;;
12267;SDS011;6196;48.398;11.736;2022-12-11T07:41:22;22.37;;;15.67;;
12267;SDS011;6196;48.398;11.736;2022-12-11T07:43:49;21.40;;;15.07;;
12267;SDS011;6196;48.398;11.736;2022-12-11T07:46:17;24.13;;;15.50;;
12267;SDS011;6196;48.398;11.736;2022-12-11T07:48:47;22.00;;;14.53;;
12267;SDS011;6196;48.398;11.736;2022-12-11T07:51:19;22.33;;;14.60;;
12267;SDS011;6196;48.398;11.736;2022-12-11T07:53:51;21.17;;;14.20;;
12267;SDS011;6196;48.398;11.736;2022-12-11T07:56:21;20.70;;;14.00;;
12267;SDS011;6196;48.398;11.736;2022-12-11T07:58:49;20.97;;;13.80;;
12267;SDS011;6196;48.398;11.736;2022-12-11T08:01:23;21.13;;;14.03;;
12267;SDS011;6196;48.398;11.736;2022-12-11T08:03:52;23.43;;;13.63;;
12267;SDS011;6196;48.398;11.736;2022-12-11T08:06:23;19.20;;;13.10;;
12267;SDS011;6196;48.398;11.736;2022-12-11T08:08:53;19.07;;;13.97;;
12267;SDS011;6196;48.398;11.736;2022-12-11T08:11:24;19.07;;;12.83;;
12267;SDS011;6196;48.398;11.736;2022-12-11T08:13:51;20.53;;;13.37;;
12267;SDS011;6196;48.398;11.736;2022-12-11T08:16:19;20.43;;;13.47;;
12267;SDS011;6196;48.398;11.736;2022-12-11T08:18:46;17.13;;;12.63;;
12267;SDS011;6196;48.398;11.736;2022-12-11T08:21:15;20.13;;;14.03;;
12267;SDS011;6196;48.398;11.736;2022-12-11T08:23:43;18.73;;;13.20;;
12267;SDS011;6196;48.398;11.736;2022-12-11T08:26:15;15.97;;;12.00;;
12267;SDS011;6196;48.398;11.736;2022-12-11T08:28:44;18.20;;;12.50;;
12267;SDS011;6196;48.398;11.736;2022-12-11T08:31:11;16.93;;;12.17;;
12267;SDS011;6196;48.398;11.736;2022-12-11T08:33:41;17.87;;;12.40;;
12267;SDS011;6196;48.398;11.736;2022-12-11T08:36:10;19.37;;;13.20;;
12267;SDS011;6196;48.398;11.736;2022-12-11T08:38:41;19.93;;;13.37;;
12267;SDS011;6196;48.398;11.736;2022-12-11T08:41:13;18.87;;;12.50;;
12267;SDS011;6196;48.398;11.736;2022-12-11T08:43:43;19.90;;;13.80;;
12267;SDS011;6196;48.398;11.736;2022-12-11T08:46:11;19.03;;;13.47;;
12267;SDS011;6196;48.398;11.736;2022-12-11T08:48:39;17.37;;;12.80;;
12267;SDS011;6196;48.398;11.736;2022-12-11T08:51:10;18.20;;;13.20;;
12267;SDS011;6196;48.398;11.736;2022-12-11T08:53:41;19.70;;;14.23;;
12267;SDS011;6196;48.398;11.736;2022-12-11T08:56:09;21.57;;;14.73;;
12267;SDS011;6196;48.398;11.736;2022-12-11T08:58:42;19.97;;;14.00;;
12267;SDS011;6196;48.398;11.736;2022-12-11T09:01:11;21.77;;;14.43;;
12267;SDS011;6196;48.398;11.736;2022-12-11T09:03:40;21.10;;;15.13;;
12267;SDS011;6196;48.398;11.736;2022-12-11T09:06:12;22.60;;;15.03;;
12267;SDS011;6196;48.398;11.736;2022-12-11T09:08:42;21.40;;;15.50;;
12267;SDS011;6196;48.398;11.736;2022-12-11T09:11:21;22.17;;;14.97;;
12267;SDS011;6196;48.398;11.736;2022-12-11T09:13:52;21.27;;;15.37;;
12267;SDS011;6196;48.398;11.736;2022-12-11T09:16:20;20.83;;;15.30;;
12267;SDS011;6196;48.398;11.736;2022-12-11T09:18:50;22.67;;;15.23;;
12267;SDS011;6196;48.398;11.736;2022-12-11T09:21:21;22.13;;;15.73;;
12267;SDS011;6196;48.398;11.736;2022-12-11T09:23:54;20.40;;;14.47;;
12267;SDS011;6196;48.398;11.736;2022-12-11T09:26:23;22.20;;;15.17;;
12267;SDS011;6196;48.398;11.736;2022-12-11T09:28:52;23.77;;;15.20;;
12267;SDS011;6196;48.398;11.736;2022-12-11T09:31:21;21.40;;;14.43;;
12267;SDS011;6196;48.398;11.736;2022-12-11T09:33:54;24.97;;;15.43;;
12267;SDS011;6196;48.398;11.736;2022-12-11T09:36:24;19.97;;;14.53;;
12267;SDS011;6196;48.398;11.736;2022-12-11T09:38:51;21.03;;;14.73;;
12267;SDS011;6196;48.398;11.736;2022-12-11T09:41:25;22.50;;;16.37;;
12267;SDS011;6196;48.398;11.736;2022-12-11T09:44:30;23.77;;;16.23;;
12267;SDS011;6196;48.398;11.736;2022-12-11T09:52:54;21.57;;;15.33;;
12267;SDS011;6196;48.398;11.736;2022-12-11T09:55:42;21.60;;;15.87;;
12267;SDS011;6196;48.398;11.736;2022-12-11T10:09:50;19.40;;;14.00;;
12267;SDS011;6196;48.398;11.736;2022-12-11T10:15:52;21.07;;;13.90;;
12267;SDS011;6196;48.398;11.736;2022-12-11T10:18:24;20.13;;;14.57;;
12267;SDS011;6196;48.398;11.736;2022-12-11T10:20:53;19.13;;;14.03;;
12267;SDS011;6196;48.398;11.736;2022-12-11T10:23:28;17.38;;;12.82;;
12267;SDS011;6196;48.398;11.736;2022-12-11T10:26:17;17.40;;;12.93;;
12267;SDS011;6196;48.398;11.736;2022-12-11T10:28:46;18.77;;;14.37;;
12267;SDS011;6196;48.398;11.736;2022-12-11T10:34:17;14.20;;;11.17;;
12267;SDS011;6196;48.398;11.736;2022-12-11T10:36:55;16.90;;;12.20;;
12267;SDS011;6196;48.398;11.736;2022-12-11T10:39:25;15.27;;;11.73;;
12267;SDS011;6196;48.398;11.736;2022-12-11T10:41:53;17.27;;;12.67;;
12267;SDS011;6196;48.398;11.736;2022-12-11T10:44:22;15.77;;;11.40;;
12267;SDS011;6196;48.398;11.736;2022-12-11T10:47:02;16.90;;;12.17;;
12267;SDS011;6196;48.398;11.736;2022-12-11T10:49:42;14.37;;;10.80;;
12267;SDS011;6196;48.398;11.736;2022-12-11T10:52:31;16.33;;;11.23;;
12267;SDS011;6196;48.398;11.736;2022-12-11T10:58:11;14.83;;;11.10;;
12267;SDS011;6196;48.398;11.736;2022-12-11T11:00:45;13.43;;;10.20;;
12267;SDS011;6196;48.398;11.736;2022-12-11T11:03:56;11.67;;;8.63;;
12267;SDS011;6196;48.398;11.736;2022-12-11T11:06:29;12.90;;;9.93;;
12267;SDS011;6196;48.398;11.736;2022-12-11T11:08:57;11.70;;;9.07;;
12267;SDS011;6196;48.398;11.736;2022-12-11T11:11:33;12.40;;;9.47;;
12267;SDS011;6196;48.398;11.736;2022-12-11T11:16:42;11.10;;;9.67;;
12267;SDS011;6196;48.398;11.736;2022-12-11T11:19:31;13.63;;;10.00;;
12267;SDS011;6196;48.398;11.736;2022-12-11T11:22:04;13.03;;;9.60;;
12267;SDS011;6196;48.398;11.736;2022-12-11T11:29:57;12.13;;;9.47;;
12267;SDS011;6196;48.398;11.736;2022-12-11T11:32:35;12.13;;;9.40;;
12267;SDS011;6196;48.398;11.736;2022-12-11T11:35:05;12.30;;;9.40;;
12267;SDS011;6196;48.398;11.736;2022-12-11T11:37:38;11.30;;;9.20;;
12267;SDS011;6196;48.398;11.736;2022-12-11T11:40:18;12.40;;;9.60;;
12267;SDS011;6196;48.398;11.736;2022-12-11T11:42:55;12.80;;;9.30;;
12267;SDS011;6196;48.398;11.736;2022-12-11T11:45:51;12.67;;;9.60;;
12267;SDS011;6196;48.398;11.736;2022-12-11T11:51:29;11.10;;;9.53;;
12267;SDS011;6196;48.398;11.736;2022-12-11T11:54:17;12.13;;;9.57;;
12267;SDS011;6196;48.398;11.736;2022-12-11T11:56:55;11.90;;;8.80;;
12267;SDS011;6196;48.398;11.736;2022-12-11T11:59:27;13.50;;;8.60;;
12267;SDS011;6196;48.398;11.736;2022-12-11T12:02:00;10.97;;;7.80;;
12267;SDS011;6196;48.398;11.736;2022-12-11T12:04:30;9.30;;;7.53;;
12267;SDS011;6196;48.398;11.736;2022-12-11T12:10:25;10.53;;;7.77;;
12267;SDS011;6196;48.398;11.736;2022-12-11T12:13:09;10.43;;;7.83;;
12267;SDS011;6196;48.398;11.736;2022-12-11T12:16:02;12.40;;;8.47;;
12267;SDS011;6196;48.398;11.736;2022-12-11T12:21:35;9.33;;;7.63;;
12267;SDS011;6196;48.398;11.736;2022-12-11T12:27:22;9.90;;;7.73;;
12267;SDS011;6196;48.398;11.736;2022-12-11T12:30:17;9.80;;;8.20;;
12267;SDS011;6196;48.398;11.736;2022-12-11T12:33:01;10.40;;;6.83;;
12267;SDS011;6196;48.398;11.736;2022-12-11T12:35:55;9.10;;;6.30;;
12267;SDS011;6196;48.398;11.736;2022-12-11T12:38:39;8.60;;;7.10;;
12267;SDS011;6196;48.398;11.736;2022-12-11T12:41:25;9.03;;;7.50;;
12267;SDS011;6196;48.398;11.736;2022-12-11T12:44:42;9.80;;;7.60;;
12267;SDS011;6196;48.398;11.736;2022-12-11T12:47:21;13.60;;;9.30;;
12267;SDS011;6196;48.398;11.736;2022-12-11T12:49:49;11.03;;;9.17;;
12267;SDS011;6196;48.398;11.736;2022-12-11T12:52:20;12.50;;;9.53;;
12267;SDS011;6196;48.398;11.736;2022-12-11T12:54:55;11.27;;;8.90;;
12267;SDS011;6196;48.398;11.736;2022-12-11T12:57:50;11.83;;;9.00;;
12267;SDS011;6196;48.398;11.736;2022-12-11T13:00:27;11.20;;;9.70;;
12267;SDS011;6196;48.398;11.736;2022-12-11T13:03:16;11.70;;;9.40;;
12267;SDS011;6196;48.398;11.736;2022-12-11T13:06:02;13.47;;;9.70;;
12267;SDS011;6196;48.398;11.736;2022-12-11T13:08:37;11.23;;;9.00;;
12267;SDS011;6196;48.398;11.736;2022-12-11T13:11:09;10.63;;;8.60;;
12267;SDS011;6196;48.398;11.736;2022-12-11T13:13:42;12.60;;;10.30;;
12267;SDS011;6196;48.398;11.736;2022-12-11T13:16:24;10.83;;;9.60;;
12267;SDS011;6196;48.398;11.736;2022-12-11T13:19:01;11.43;;;9.40;;
12267;SDS011;6196;48.398;11.736;2022-12-11T13:21:35;10.77;;;9.67;;
12267;SDS011;6196;48.398;11.736;2022-12-11T13:26:38;12.20;;;9.90;;
12267;SDS011;6196;48.398;11.736;2022-12-11T13:29:26;13.87;;;10.20;;
12267;SDS011;6196;48.398;11.736;2022-12-11T13:32:20;15.23;;;10.40;;
12267;SDS011;6196;48.398;11.736;2022-12-11T13:34:50;12.53;;;9.07;;
12267;SDS011;6196;48.398;11.736;2022-12-11T13:37:26;13.80;;;9.67;;
12267;SDS011;6196;48.398;11.736;2022-12-11T13:39:59;11.47;;;9.40;;
12267;SDS011;6196;48.398;11.736;2022-12-11T13:42:32;14.40;;;9.93;;
12267;SDS011;6196;48.398;11.736;2022-12-11T13:45:05;12.27;;;8.83;;
12267;SDS011;6196;48.398;11.736;2022-12-11T13:47:44;11.93;;;8.97;;
12267;SDS011;6196;48.398;11.736;2022-12-11T13:50:22;11.27;;;8.60;;
12267;SDS011;6196;48.398;11.736;2022-12-11T13:52:54;11.20;;;8.90;;
12267;SDS011;6196;48.398;11.736;2022-12-11T13:55:25;11.17;;;7.80;;
12267;SDS011;6196;48.398;11.736;2022-12-11T13:58:00;13.27;;;9.10;;
12267;SDS011;6196;48.398;11.736;2022-12-11T14:00:28;9.43;;;7.60;;
12267;SDS011;6196;48.398;11.736;2022-12-11T14:02:58;9.87;;;8.50;;
12267;SDS011;6196;48.398;11.736;2022-12-11T14:05:32;13.33;;;9.33;;
12267;SDS011;6196;48.398;11.736;2022-12-11T14:08:02;10.13;;;8.47;;
12267;SDS011;6196;48.398;11.736;2022-12-11T14:10:34;11.30;;;8.40;;
12267;SDS011;6196;48.398;11.736;2022-12-11T14:13:03;11.23;;;8.63;;
12267;SDS011;6196;48.398;11.736;2022-12-11T14:15:34;12.63;;;8.63;;
12267;SDS011;6196;48.398;11.736;2022-12-11T14:18:01;12.10;;;8.70;;
12267;SDS011;6196;48.398;11.736;2022-12-11T14:20:31;11.43;;;9.23;;
12267;SDS011;6196;48.398;11.736;2022-12-11T14:23:16;12.93;;;8.70;;
12267;SDS011;6196;48.398;11.736;2022-12-11T14:25:52;13.23;;;8.70;;
12267;SDS011;6196;48.398;11.736;2022-12-11T14:28:29;13.00;;;9.27;;
12267;SDS011;6196;48.398;11.736;2022-12-11T14:31:02;12.50;;;9.40;;
12267;SDS011;6196;48.398;11.736;2022-12-11T14:33:32;13.93;;;8.93;;
12267;SDS011;6196;48.398;11.736;2022-12-11T14:36:06;12.33;;;9.47;;
12267;SDS011;6196;48.398;11.736;2022-12-11T14:41:05;15.33;;;10.67;;
12267;SDS011;6196;48.398;11.736;2022-12-11T14:43:41;14.67;;;10.50;;
12267;SDS011;6196;48.398;11.736;2022-12-11T14:46:21;15.30;;;11.13;;
12267;SDS011;6196;48.398;11.736;2022-12-11T14:49:04;16.40;;;13.00;;
12267;SDS011;6196;48.398;11.736;2022-12-11T14:51:42;11.70;;;8.47;;
12267;SDS011;6196;48.398;11.736;2022-12-11T14:54:14;13.10;;;9.03;;
12267;SDS011;6196;48.398;11.736;2022-12-11T14:57:04;12.33;;;8.50;;
12267;SDS011;6196;48.398;11.736;2022-12-11T14:59:42;8.33;;;6.30;;
12267;SDS011;6196;48.398;11.736;2022-12-11T15:02:25;6.43;;;4.90;;
12267;SDS011;6196;48.398;11.736;2022-12-11T15:05:10;5.43;;;3.90;;
12267;SDS011;6196;48.398;11.736;2022-12-11T15:07:57;4.47;;;3.27;;
12267;SDS011;6196;48.398;11.736;2022-12-11T15:11:05;3.27;;;2.23;;
12267;SDS011;6196;48.398;11.736;2022-12-11T15:13:35;3.70;;;2.50;;
12267;SDS011;6196;48.398;11.736;2022-12-11T15:16:19;3.20;;;2.37;;
12267;SDS011;6196;48.398;11.736;2022-12-11T15:18:49;3.00;;;2.50;;
12267;SDS011;6196;48.398;11.736;2022-12-11T15:21:18;3.30;;;2.70;;
12267;SDS011;6196;48.398;11.736;2022-12-11T15:23:58;3.30;;;2.63;;
12267;SDS011;6196;48.398;11.736;2022-12-11T15:26:32;3.10;;;2.50;;
12267;SDS011;6196;48.398;11.736;2022-12-11T15:29:26;4.53;;;2.87;;
12267;SDS011;6196;48.398;11.736;2022-12-11T15:37:52;4.33;;;2.90;;
12267;SDS011;6196;48.398;11.736;2022-12-11T15:40:21;4.37;;;3.30;;
12267;SDS011;6196;48.398;11.736;2022-12-11T15:42:49;3.87;;;2.90;;
12267;SDS011;6196;48.398;11.736;2022-12-11T15:45:17;4.63;;;3.60;;
12267;SDS011;6196;48.398;11.736;2022-12-11T15:47:47;4.30;;;3.90;;
12267;SDS011;6196;48.398;11.736;2022-12-11T15:50:22;6.10;;;3.73;;
12267;SDS011;6196;48.398;11.736;2022-12-11T15:52:55;3.70;;;3.00;;
12267;SDS011;6196;48.398;11.736;2022-12-11T15:55:22;4.80;;;2.97;;
12267;SDS011;6196;48.398;11.736;2022-12-11T15:58:00;4.00;;;2.90;;
12267;SDS011;6196;48.398;11.736;2022-12-11T16:00:30;5.53;;;3.20;;
12267;SDS011;6196;48.398;11.736;2022-12-11T16:02:57;3.80;;;2.63;;
12267;SDS011;6196;48.398;11.736;2022-12-11T16:05:24;3.70;;;3.20;;
12267;SDS011;6196;48.398;11.736;2022-12-11T16:07:51;4.70;;;3.43;;
12267;SDS011;6196;48.398;11.736;2022-12-11T16:10:25;5.10;;;3.57;;
12267;SDS011;6196;48.398;11.736;2022-12-11T16:12:52;3.80;;;3.03;;
12267;SDS011;6196;48.398;11.736;2022-12-11T16:15:25;5.67;;;3.13;;
12267;SDS011;6196;48.398;11.736;2022-12-11T16:17:59;3.67;;;3.10;;
12267;SDS011;6196;48.398;11.736;2022-12-11T16:20:32;4.07;;;3.10;;
12267;SDS011;6196;48.398;11.736;2022-12-11T16:23:01;4.03;;;2.77;;
12267;SDS011;6196;48.398;11.736;2022-12-11T16:25:28;3.93;;;2.87;;